sensor_id;sensor_type;location;lat;lon;timestamp;P1;durP1;ratioP1;P2;durP2;ratioP2
34060;SDS011;20336;-33.424;-70.638;2023-02-25T00:01:25;25.42;;;8.75;;
34060;SDS011;20336;-33.424;-70.638;2023-02-25T00:03:54;12.75;;;7.80;;
34060;SDS011;20336;-33.424;-70.638;2023-02-25T00:06:22;19.15;;;8.55;;
34060;SDS011;20336;-33.424;-70.638;2023-02-25T00:08:51;18.52;;;7.95;;
34060;SDS011;20336;-33.424;-70.638;2023-02-25T00:11:19;18.90;;;8.38;;
34060;SDS011;20336;-33.424;-70.638;2023-02-25T00:13:46;17.98;;;8.20;;
34060;SDS011;20336;-33.424;-70.638;2023-02-25T00:16:13;21.90;;;7.93;;
34060;SDS011;20336;-33.424;-70.638;2023-02-25T00:18:41;23.23;;;8.60;;
34060;SDS011;20336;-33.424;-70.638;2023-02-25T00:21:11;16.52;;;8.25;;
34060;SDS011;20336;-33.424;-70.638;2023-02-25T00:23:40;19.58;;;7.53;;
34060;SDS011;20336;-33.424;-70.638;2023-02-25T00:26:08;12.52;;;7.05;;
34060;SDS011;20336;-33.424;-70.638;2023-02-25T00:28:36;13.85;;;6.82;;
34060;SDS011;20336;-33.424;-70.638;2023-02-25T00:31:05;15.20;;;7.18;;
34060;SDS011;20336;-33.424;-70.638;2023-02-25T00:33:32;19.67;;;7.70;;
34060;SDS011;20336;-33.424;-70.638;2023-02-25T00:35:59;17.35;;;7.65;;
34060;SDS011;20336;-33.424;-70.638;2023-02-25T00:38:29;18.98;;;7.18;;
34060;SDS011;20336;-33.424;-70.638;2023-02-25T00:40:56;16.58;;;7.47;;
34060;SDS011;20336;-33.424;-70.638;2023-02-25T00:43:23;16.65;;;7.47;;
34060;SDS011;20336;-33.424;-70.638;2023-02-25T00:45:50;17.08;;;7.18;;
34060;SDS011;20336;-33.424;-70.638;2023-02-25T00:48:17;20.20;;;7.38;;
34060;SDS011;20336;-33.424;-70.638;2023-02-25T00:50:44;21.77;;;7.88;;
34060;SDS011;20336;-33.424;-70.638;2023-02-25T00:53:10;12.18;;;7.70;;
34060;SDS011;20336;-33.424;-70.638;2023-02-25T00:55:37;15.32;;;7.28;;
34060;SDS011;20336;-33.424;-70.638;2023-02-25T00:58:04;18.02;;;7.22;;
34060;SDS011;20336;-33.424;-70.638;2023-02-25T01:00:31;13.40;;;7.07;;
34060;SDS011;20336;-33.424;-70.638;2023-02-25T01:02:57;14.85;;;7.60;;
34060;SDS011;20336;-33.424;-70.638;2023-02-25T01:05:24;17.80;;;7.70;;
34060;SDS011;20336;-33.424;-70.638;2023-02-25T01:07:51;16.30;;;7.47;;
34060;SDS011;20336;-33.424;-70.638;2023-02-25T01:10:18;23.33;;;8.02;;
34060;SDS011;20336;-33.424;-70.638;2023-02-25T01:12:45;15.07;;;7.30;;
34060;SDS011;20336;-33.424;-70.638;2023-02-25T01:15:12;17.50;;;6.85;;
34060;SDS011;20336;-33.424;-70.638;2023-02-25T01:17:39;14.35;;;6.97;;
34060;SDS011;20336;-33.424;-70.638;2023-02-25T01:20:06;16.67;;;6.68;;
34060;SDS011;20336;-33.424;-70.638;2023-02-25T01:22:39;13.10;;;6.72;;
34060;SDS011;20336;-33.424;-70.638;2023-02-25T01:25:07;13.60;;;6.93;;
34060;SDS011;20336;-33.424;-70.638;2023-02-25T01:27:38;15.07;;;7.47;;
34060;SDS011;20336;-33.424;-70.638;2023-02-25T01:30:05;18.13;;;8.00;;
34060;SDS011;20336;-33.424;-70.638;2023-02-25T01:32:33;21.25;;;7.65;;
34060;SDS011;20336;-33.424;-70.638;2023-02-25T01:35:00;18.17;;;7.38;;
34060;SDS011;20336;-33.424;-70.638;2023-02-25T01:37:26;18.27;;;7.32;;
34060;SDS011;20336;-33.424;-70.638;2023-02-25T01:39:53;20.33;;;7.32;;
34060;SDS011;20336;-33.424;-70.638;2023-02-25T01:42:20;20.95;;;8.13;;
34060;SDS011;20336;-33.424;-70.638;2023-02-25T01:47:43;16.80;;;7.68;;
34060;SDS011;20336;-33.424;-70.638;2023-02-25T01:50:20;19.65;;;8.63;;
34060;SDS011;20336;-33.424;-70.638;2023-02-25T01:52:49;16.08;;;6.93;;
34060;SDS011;20336;-33.424;-70.638;2023-02-25T01:55:18;18.52;;;7.63;;
34060;SDS011;20336;-33.424;-70.638;2023-02-25T01:57:45;14.30;;;7.32;;
34060;SDS011;20336;-33.424;-70.638;2023-02-25T02:00:12;18.75;;;7.45;;
34060;SDS011;20336;-33.424;-70.638;2023-02-25T02:02:42;15.43;;;7.55;;
34060;SDS011;20336;-33.424;-70.638;2023-02-25T02:05:12;15.70;;;8.32;;
34060;SDS011;20336;-33.424;-70.638;2023-02-25T02:07:39;18.80;;;8.00;;
34060;SDS011;20336;-33.424;-70.638;2023-02-25T02:10:06;18.88;;;7.70;;
34060;SDS011;20336;-33.424;-70.638;2023-02-25T02:12:37;15.93;;;8.43;;
34060;SDS011;20336;-33.424;-70.638;2023-02-25T02:15:08;17.05;;;8.15;;
34060;SDS011;20336;-33.424;-70.638;2023-02-25T02:17:40;17.00;;;7.75;;
34060;SDS011;20336;-33.424;-70.638;2023-02-25T02:20:26;15.82;;;8.27;;
34060;SDS011;20336;-33.424;-70.638;2023-02-25T02:28:25;14.50;;;7.72;;
34060;SDS011;20336;-33.424;-70.638;2023-02-25T02:39:33;16.25;;;7.93;;
34060;SDS011;20336;-33.424;-70.638;2023-02-25T02:42:13;21.25;;;7.72;;
34060;SDS011;20336;-33.424;-70.638;2023-02-25T02:44:53;16.30;;;8.15;;
34060;SDS011;20336;-33.424;-70.638;2023-02-25T02:47:35;17.70;;;7.72;;
34060;SDS011;20336;-33.424;-70.638;2023-02-25T02:52:30;14.82;;;7.70;;
34060;SDS011;20336;-33.424;-70.638;2023-02-25T02:55:00;18.50;;;8.73;;
34060;SDS011;20336;-33.424;-70.638;2023-02-25T02:57:28;16.52;;;7.60;;
34060;SDS011;20336;-33.424;-70.638;2023-02-25T02:59:57;18.23;;;7.88;;
34060;SDS011;20336;-33.424;-70.638;2023-02-25T03:02:27;25.50;;;8.48;;
34060;SDS011;20336;-33.424;-70.638;2023-02-25T03:04:58;20.40;;;8.13;;
34060;SDS011;20336;-33.424;-70.638;2023-02-25T03:07:26;19.48;;;8.45;;
34060;SDS011;20336;-33.424;-70.638;2023-02-25T03:09:55;24.05;;;9.00;;
34060;SDS011;20336;-33.424;-70.638;2023-02-25T03:12:23;19.33;;;7.60;;
34060;SDS011;20336;-33.424;-70.638;2023-02-25T03:14:50;19.13;;;8.10;;
34060;SDS011;20336;-33.424;-70.638;2023-02-25T03:19:46;18.17;;;8.07;;
34060;SDS011;20336;-33.424;-70.638;2023-02-25T03:22:17;21.58;;;8.02;;
34060;SDS011;20336;-33.424;-70.638;2023-02-25T03:24:47;17.92;;;7.97;;
34060;SDS011;20336;-33.424;-70.638;2023-02-25T03:27:22;19.55;;;7.75;;
34060;SDS011;20336;-33.424;-70.638;2023-02-25T03:29:50;16.60;;;7.72;;
34060;SDS011;20336;-33.424;-70.638;2023-02-25T03:32:17;20.42;;;8.27;;
34060;SDS011;20336;-33.424;-70.638;2023-02-25T03:34:48;16.00;;;8.13;;
34060;SDS011;20336;-33.424;-70.638;2023-02-25T03:37:20;16.02;;;7.95;;
34060;SDS011;20336;-33.424;-70.638;2023-02-25T03:39:49;21.30;;;8.32;;
34060;SDS011;20336;-33.424;-70.638;2023-02-25T03:42:18;17.80;;;6.90;;
34060;SDS011;20336;-33.424;-70.638;2023-02-25T03:44:49;22.95;;;8.52;;
34060;SDS011;20336;-33.424;-70.638;2023-02-25T03:47:17;24.83;;;7.72;;
34060;SDS011;20336;-33.424;-70.638;2023-02-25T03:49:47;21.60;;;8.35;;
34060;SDS011;20336;-33.424;-70.638;2023-02-25T03:52:16;23.80;;;6.95;;
34060;SDS011;20336;-33.424;-70.638;2023-02-25T03:54:51;19.45;;;7.38;;
34060;SDS011;20336;-33.424;-70.638;2023-02-25T03:57:19;20.13;;;8.25;;
34060;SDS011;20336;-33.424;-70.638;2023-02-25T03:59:50;19.65;;;7.65;;
34060;SDS011;20336;-33.424;-70.638;2023-02-25T04:02:23;20.17;;;8.88;;
34060;SDS011;20336;-33.424;-70.638;2023-02-25T04:04:52;19.55;;;7.32;;
34060;SDS011;20336;-33.424;-70.638;2023-02-25T04:07:19;18.70;;;7.30;;
34060;SDS011;20336;-33.424;-70.638;2023-02-25T04:09:46;16.10;;;7.07;;
34060;SDS011;20336;-33.424;-70.638;2023-02-25T04:12:13;17.05;;;7.20;;
34060;SDS011;20336;-33.424;-70.638;2023-02-25T04:14:40;15.77;;;7.10;;
34060;SDS011;20336;-33.424;-70.638;2023-02-25T04:17:07;15.73;;;7.13;;
34060;SDS011;20336;-33.424;-70.638;2023-02-25T04:19:35;17.13;;;7.03;;
34060;SDS011;20336;-33.424;-70.638;2023-02-25T04:22:02;15.00;;;7.05;;
34060;SDS011;20336;-33.424;-70.638;2023-02-25T04:24:32;14.40;;;7.03;;
34060;SDS011;20336;-33.424;-70.638;2023-02-25T04:26:59;14.85;;;7.45;;
34060;SDS011;20336;-33.424;-70.638;2023-02-25T04:29:27;18.35;;;6.82;;
34060;SDS011;20336;-33.424;-70.638;2023-02-25T04:31:54;13.10;;;6.88;;
34060;SDS011;20336;-33.424;-70.638;2023-02-25T04:34:21;18.73;;;7.13;;
34060;SDS011;20336;-33.424;-70.638;2023-02-25T04:36:48;17.60;;;7.30;;
34060;SDS011;20336;-33.424;-70.638;2023-02-25T04:39:15;22.20;;;7.82;;
34060;SDS011;20336;-33.424;-70.638;2023-02-25T04:41:42;16.50;;;7.88;;
34060;SDS011;20336;-33.424;-70.638;2023-02-25T04:44:09;20.35;;;7.40;;
34060;SDS011;20336;-33.424;-70.638;2023-02-25T04:46:37;15.48;;;7.15;;
34060;SDS011;20336;-33.424;-70.638;2023-02-25T04:49:05;18.42;;;7.70;;
34060;SDS011;20336;-33.424;-70.638;2023-02-25T04:51:34;16.17;;;7.15;;
34060;SDS011;20336;-33.424;-70.638;2023-02-25T04:54:01;15.02;;;7.47;;
34060;SDS011;20336;-33.424;-70.638;2023-02-25T04:56:27;16.85;;;7.57;;
34060;SDS011;20336;-33.424;-70.638;2023-02-25T04:58:55;18.08;;;7.25;;
34060;SDS011;20336;-33.424;-70.638;2023-02-25T05:01:22;20.88;;;7.13;;
34060;SDS011;20336;-33.424;-70.638;2023-02-25T05:03:50;14.98;;;7.10;;
34060;SDS011;20336;-33.424;-70.638;2023-02-25T05:06:22;16.70;;;7.07;;
34060;SDS011;20336;-33.424;-70.638;2023-02-25T05:08:49;14.00;;;6.70;;
34060;SDS011;20336;-33.424;-70.638;2023-02-25T05:11:16;15.80;;;7.43;;
34060;SDS011;20336;-33.424;-70.638;2023-02-25T05:13:43;15.15;;;7.30;;
34060;SDS011;20336;-33.424;-70.638;2023-02-25T05:16:11;16.77;;;7.30;;
34060;SDS011;20336;-33.424;-70.638;2023-02-25T05:18:41;16.25;;;7.40;;
34060;SDS011;20336;-33.424;-70.638;2023-02-25T05:21:13;14.48;;;7.20;;
34060;SDS011;20336;-33.424;-70.638;2023-02-25T05:23:43;21.20;;;7.95;;
34060;SDS011;20336;-33.424;-70.638;2023-02-25T05:26:10;13.80;;;6.85;;
34060;SDS011;20336;-33.424;-70.638;2023-02-25T05:28:38;20.48;;;7.25;;
34060;SDS011;20336;-33.424;-70.638;2023-02-25T05:31:08;19.58;;;7.60;;
34060;SDS011;20336;-33.424;-70.638;2023-02-25T05:33:35;14.05;;;7.25;;
34060;SDS011;20336;-33.424;-70.638;2023-02-25T05:36:06;11.57;;;7.30;;
34060;SDS011;20336;-33.424;-70.638;2023-02-25T05:38:33;15.35;;;6.72;;
34060;SDS011;20336;-33.424;-70.638;2023-02-25T05:41:01;16.27;;;7.10;;
34060;SDS011;20336;-33.424;-70.638;2023-02-25T05:43:30;18.20;;;7.28;;
34060;SDS011;20336;-33.424;-70.638;2023-02-25T05:45:57;21.25;;;7.55;;
34060;SDS011;20336;-33.424;-70.638;2023-02-25T05:48:28;11.43;;;6.55;;
34060;SDS011;20336;-33.424;-70.638;2023-02-25T05:50:59;17.65;;;6.68;;
34060;SDS011;20336;-33.424;-70.638;2023-02-25T05:53:26;15.98;;;6.80;;
34060;SDS011;20336;-33.424;-70.638;2023-02-25T05:55:53;16.02;;;7.18;;
34060;SDS011;20336;-33.424;-70.638;2023-02-25T05:58:21;17.05;;;6.78;;
34060;SDS011;20336;-33.424;-70.638;2023-02-25T06:00:48;15.65;;;7.50;;
34060;SDS011;20336;-33.424;-70.638;2023-02-25T06:03:15;14.63;;;7.25;;
34060;SDS011;20336;-33.424;-70.638;2023-02-25T06:05:42;14.48;;;5.80;;
34060;SDS011;20336;-33.424;-70.638;2023-02-25T06:08:12;16.25;;;6.57;;
34060;SDS011;20336;-33.424;-70.638;2023-02-25T06:10:39;16.08;;;6.90;;
34060;SDS011;20336;-33.424;-70.638;2023-02-25T06:13:06;17.02;;;7.28;;
34060;SDS011;20336;-33.424;-70.638;2023-02-25T06:15:37;19.75;;;7.60;;
34060;SDS011;20336;-33.424;-70.638;2023-02-25T06:18:04;19.23;;;7.70;;
34060;SDS011;20336;-33.424;-70.638;2023-02-25T06:20:31;20.90;;;7.90;;
34060;SDS011;20336;-33.424;-70.638;2023-02-25T06:22:59;16.13;;;7.63;;
34060;SDS011;20336;-33.424;-70.638;2023-02-25T06:25:26;19.25;;;7.55;;
34060;SDS011;20336;-33.424;-70.638;2023-02-25T06:28:00;15.05;;;7.07;;
34060;SDS011;20336;-33.424;-70.638;2023-02-25T06:30:28;15.50;;;7.03;;
34060;SDS011;20336;-33.424;-70.638;2023-02-25T06:32:55;14.00;;;7.05;;
34060;SDS011;20336;-33.424;-70.638;2023-02-25T06:35:22;16.73;;;7.37;;
34060;SDS011;20336;-33.424;-70.638;2023-02-25T06:37:53;12.82;;;6.82;;
34060;SDS011;20336;-33.424;-70.638;2023-02-25T06:40:19;13.82;;;7.05;;
34060;SDS011;20336;-33.424;-70.638;2023-02-25T06:42:46;15.18;;;7.38;;
34060;SDS011;20336;-33.424;-70.638;2023-02-25T06:45:14;19.98;;;8.15;;
34060;SDS011;20336;-33.424;-70.638;2023-02-25T06:47:41;21.45;;;8.05;;
34060;SDS011;20336;-33.424;-70.638;2023-02-25T06:50:08;21.02;;;8.32;;
34060;SDS011;20336;-33.424;-70.638;2023-02-25T06:52:35;19.60;;;8.45;;
34060;SDS011;20336;-33.424;-70.638;2023-02-25T06:55:02;21.90;;;8.37;;
34060;SDS011;20336;-33.424;-70.638;2023-02-25T06:57:31;17.47;;;7.60;;
34060;SDS011;20336;-33.424;-70.638;2023-02-25T06:59:58;15.50;;;7.50;;
34060;SDS011;20336;-33.424;-70.638;2023-02-25T07:02:25;14.98;;;7.45;;
34060;SDS011;20336;-33.424;-70.638;2023-02-25T07:04:52;16.53;;;8.00;;
34060;SDS011;20336;-33.424;-70.638;2023-02-25T07:07:19;19.15;;;7.82;;
34060;SDS011;20336;-33.424;-70.638;2023-02-25T07:09:46;14.27;;;7.10;;
34060;SDS011;20336;-33.424;-70.638;2023-02-25T07:12:13;16.63;;;6.97;;
34060;SDS011;20336;-33.424;-70.638;2023-02-25T07:14:40;12.13;;;7.37;;
34060;SDS011;20336;-33.424;-70.638;2023-02-25T07:17:07;15.53;;;7.47;;
34060;SDS011;20336;-33.424;-70.638;2023-02-25T07:19:34;15.73;;;8.30;;
34060;SDS011;20336;-33.424;-70.638;2023-02-25T07:22:00;15.13;;;8.47;;
34060;SDS011;20336;-33.424;-70.638;2023-02-25T07:24:27;16.33;;;8.07;;
34060;SDS011;20336;-33.424;-70.638;2023-02-25T07:26:55;18.23;;;7.60;;
34060;SDS011;20336;-33.424;-70.638;2023-02-25T07:29:22;12.33;;;8.07;;
34060;SDS011;20336;-33.424;-70.638;2023-02-25T07:31:48;14.87;;;7.20;;
34060;SDS011;20336;-33.424;-70.638;2023-02-25T07:34:15;18.90;;;8.40;;
34060;SDS011;20336;-33.424;-70.638;2023-02-25T07:36:42;19.97;;;8.30;;
34060;SDS011;20336;-33.424;-70.638;2023-02-25T07:39:10;15.63;;;7.43;;
34060;SDS011;20336;-33.424;-70.638;2023-02-25T07:41:37;19.40;;;8.13;;
34060;SDS011;20336;-33.424;-70.638;2023-02-25T07:44:04;17.40;;;7.37;;
34060;SDS011;20336;-33.424;-70.638;2023-02-25T07:46:32;15.90;;;7.60;;
34060;SDS011;20336;-33.424;-70.638;2023-02-25T07:48:59;14.43;;;6.90;;
34060;SDS011;20336;-33.424;-70.638;2023-02-25T07:51:25;16.23;;;7.77;;
34060;SDS011;20336;-33.424;-70.638;2023-02-25T07:53:55;15.67;;;8.00;;
34060;SDS011;20336;-33.424;-70.638;2023-02-25T07:56:23;17.33;;;7.43;;
34060;SDS011;20336;-33.424;-70.638;2023-02-25T07:58:50;20.37;;;8.63;;
34060;SDS011;20336;-33.424;-70.638;2023-02-25T08:01:19;13.93;;;7.57;;
34060;SDS011;20336;-33.424;-70.638;2023-02-25T08:03:52;20.73;;;8.27;;
34060;SDS011;20336;-33.424;-70.638;2023-02-25T08:06:19;18.50;;;8.53;;
34060;SDS011;20336;-33.424;-70.638;2023-02-25T08:08:47;19.07;;;8.83;;
34060;SDS011;20336;-33.424;-70.638;2023-02-25T08:11:17;19.60;;;7.50;;
34060;SDS011;20336;-33.424;-70.638;2023-02-25T08:13:44;16.83;;;7.60;;
34060;SDS011;20336;-33.424;-70.638;2023-02-25T08:16:12;15.23;;;8.13;;
34060;SDS011;20336;-33.424;-70.638;2023-02-25T08:18:39;17.17;;;8.57;;
34060;SDS011;20336;-33.424;-70.638;2023-02-25T08:21:10;19.57;;;7.63;;
34060;SDS011;20336;-33.424;-70.638;2023-02-25T08:23:37;18.23;;;8.47;;
34060;SDS011;20336;-33.424;-70.638;2023-02-25T08:26:04;19.13;;;8.27;;
34060;SDS011;20336;-33.424;-70.638;2023-02-25T08:28:32;18.90;;;8.90;;
34060;SDS011;20336;-33.424;-70.638;2023-02-25T08:30:58;19.67;;;7.87;;
34060;SDS011;20336;-33.424;-70.638;2023-02-25T08:33:26;17.23;;;7.80;;
34060;SDS011;20336;-33.424;-70.638;2023-02-25T08:35:54;15.07;;;7.63;;
34060;SDS011;20336;-33.424;-70.638;2023-02-25T08:38:21;15.50;;;7.97;;
34060;SDS011;20336;-33.424;-70.638;2023-02-25T08:40:48;14.13;;;8.67;;
34060;SDS011;20336;-33.424;-70.638;2023-02-25T08:43:15;21.33;;;9.77;;
34060;SDS011;20336;-33.424;-70.638;2023-02-25T08:45:42;21.13;;;9.17;;
34060;SDS011;20336;-33.424;-70.638;2023-02-25T08:48:09;17.57;;;8.40;;
34060;SDS011;20336;-33.424;-70.638;2023-02-25T08:50:36;21.27;;;9.27;;
34060;SDS011;20336;-33.424;-70.638;2023-02-25T08:53:02;22.00;;;9.50;;
34060;SDS011;20336;-33.424;-70.638;2023-02-25T08:55:29;18.80;;;9.00;;
34060;SDS011;20336;-33.424;-70.638;2023-02-25T08:57:59;17.57;;;8.10;;
34060;SDS011;20336;-33.424;-70.638;2023-02-25T09:00:26;15.13;;;7.73;;
34060;SDS011;20336;-33.424;-70.638;2023-02-25T09:02:53;21.23;;;8.83;;
34060;SDS011;20336;-33.424;-70.638;2023-02-25T09:05:20;16.67;;;8.60;;
34060;SDS011;20336;-33.424;-70.638;2023-02-25T09:07:49;16.53;;;7.77;;
34060;SDS011;20336;-33.424;-70.638;2023-02-25T09:10:16;15.97;;;8.40;;
34060;SDS011;20336;-33.424;-70.638;2023-02-25T09:12:43;21.00;;;9.13;;
34060;SDS011;20336;-33.424;-70.638;2023-02-25T09:15:11;21.20;;;9.00;;
34060;SDS011;20336;-33.424;-70.638;2023-02-25T09:17:38;19.37;;;8.70;;
34060;SDS011;20336;-33.424;-70.638;2023-02-25T09:20:05;17.17;;;8.60;;
34060;SDS011;20336;-33.424;-70.638;2023-02-25T09:22:34;40.40;;;10.07;;
34060;SDS011;20336;-33.424;-70.638;2023-02-25T09:25:03;37.63;;;9.47;;
34060;SDS011;20336;-33.424;-70.638;2023-02-25T09:27:30;62.90;;;12.83;;
34060;SDS011;20336;-33.424;-70.638;2023-02-25T09:29:57;27.00;;;9.83;;
34060;SDS011;20336;-33.424;-70.638;2023-02-25T09:32:24;19.13;;;8.43;;
34060;SDS011;20336;-33.424;-70.638;2023-02-25T09:34:51;18.20;;;8.60;;
34060;SDS011;20336;-33.424;-70.638;2023-02-25T09:37:18;17.50;;;8.07;;
34060;SDS011;20336;-33.424;-70.638;2023-02-25T09:39:46;23.00;;;9.47;;
34060;SDS011;20336;-33.424;-70.638;2023-02-25T09:42:15;15.67;;;8.27;;
34060;SDS011;20336;-33.424;-70.638;2023-02-25T09:44:44;22.13;;;8.20;;
34060;SDS011;20336;-33.424;-70.638;2023-02-25T09:50:04;21.00;;;8.67;;
34060;SDS011;20336;-33.424;-70.638;2023-02-25T09:57:43;18.17;;;9.40;;
34060;SDS011;20336;-33.424;-70.638;2023-02-25T10:00:16;24.77;;;9.30;;
34060;SDS011;20336;-33.424;-70.638;2023-02-25T10:02:46;20.40;;;9.67;;
34060;SDS011;20336;-33.424;-70.638;2023-02-25T10:05:17;20.90;;;8.70;;
34060;SDS011;20336;-33.424;-70.638;2023-02-25T10:10:34;18.07;;;9.47;;
34060;SDS011;20336;-33.424;-70.638;2023-02-25T10:13:13;23.93;;;9.70;;
34060;SDS011;20336;-33.424;-70.638;2023-02-25T10:24:24;21.90;;;11.57;;
34060;SDS011;20336;-33.424;-70.638;2023-02-25T10:27:27;29.30;;;13.13;;
34060;SDS011;20336;-33.424;-70.638;2023-02-25T10:29:47;23.27;;;11.60;;
34060;SDS011;20336;-33.424;-70.638;2023-02-25T10:32:22;22.17;;;11.77;;
34060;SDS011;20336;-33.424;-70.638;2023-02-25T10:34:53;22.92;;;12.02;;
34060;SDS011;20336;-33.424;-70.638;2023-02-25T10:37:35;20.80;;;10.87;;
34060;SDS011;20336;-33.424;-70.638;2023-02-25T10:40:05;21.87;;;10.03;;
34060;SDS011;20336;-33.424;-70.638;2023-02-25T10:42:36;25.97;;;11.03;;
34060;SDS011;20336;-33.424;-70.638;2023-02-25T10:45:08;21.07;;;11.17;;
34060;SDS011;20336;-33.424;-70.638;2023-02-25T10:47:36;24.63;;;10.77;;
34060;SDS011;20336;-33.424;-70.638;2023-02-25T10:50:11;18.53;;;10.83;;
34060;SDS011;20336;-33.424;-70.638;2023-02-25T10:55:28;24.17;;;11.13;;
34060;SDS011;20336;-33.424;-70.638;2023-02-25T10:57:59;25.57;;;10.17;;
34060;SDS011;20336;-33.424;-70.638;2023-02-25T11:00:27;24.03;;;10.13;;
34060;SDS011;20336;-33.424;-70.638;2023-02-25T11:02:55;24.20;;;9.97;;
34060;SDS011;20336;-33.424;-70.638;2023-02-25T11:05:29;20.03;;;10.37;;
34060;SDS011;20336;-33.424;-70.638;2023-02-25T11:07:56;28.00;;;9.43;;
34060;SDS011;20336;-33.424;-70.638;2023-02-25T11:10:23;22.43;;;10.33;;
34060;SDS011;20336;-33.424;-70.638;2023-02-25T11:12:52;22.07;;;10.33;;
34060;SDS011;20336;-33.424;-70.638;2023-02-25T11:15:27;21.13;;;10.70;;
34060;SDS011;20336;-33.424;-70.638;2023-02-25T11:18:00;20.87;;;10.07;;
34060;SDS011;20336;-33.424;-70.638;2023-02-25T11:20:28;27.77;;;10.77;;
34060;SDS011;20336;-33.424;-70.638;2023-02-25T11:22:56;22.73;;;10.27;;
34060;SDS011;20336;-33.424;-70.638;2023-02-25T11:25:56;20.90;;;9.20;;
34060;SDS011;20336;-33.424;-70.638;2023-02-25T11:28:24;19.90;;;9.68;;
34060;SDS011;20336;-33.424;-70.638;2023-02-25T11:30:53;32.87;;;11.23;;
34060;SDS011;20336;-33.424;-70.638;2023-02-25T11:33:25;25.73;;;12.07;;
34060;SDS011;20336;-33.424;-70.638;2023-02-25T11:35:56;27.67;;;11.50;;
34060;SDS011;20336;-33.424;-70.638;2023-02-25T11:40:54;32.50;;;10.98;;
34060;SDS011;20336;-33.424;-70.638;2023-02-25T11:43:22;36.50;;;11.20;;
34060;SDS011;20336;-33.424;-70.638;2023-02-25T11:46:00;27.40;;;10.95;;
34060;SDS011;20336;-33.424;-70.638;2023-02-25T11:48:29;29.05;;;12.27;;
34060;SDS011;20336;-33.424;-70.638;2023-02-25T11:53:52;27.08;;;11.48;;
34060;SDS011;20336;-33.424;-70.638;2023-02-25T11:56:34;28.98;;;11.40;;
34060;SDS011;20336;-33.424;-70.638;2023-02-25T11:59:09;29.73;;;12.00;;
34060;SDS011;20336;-33.424;-70.638;2023-02-25T12:12:40;25.42;;;14.30;;
34060;SDS011;20336;-33.424;-70.638;2023-02-25T12:30:59;29.20;;;15.82;;
34060;SDS011;20336;-33.424;-70.638;2023-02-25T12:46:50;39.67;;;16.50;;
34060;SDS011;20336;-33.424;-70.638;2023-02-25T12:52:25;33.72;;;16.67;;
34060;SDS011;20336;-33.424;-70.638;2023-02-25T12:57:44;35.00;;;17.48;;
34060;SDS011;20336;-33.424;-70.638;2023-02-25T13:03:02;30.48;;;17.63;;
34060;SDS011;20336;-33.424;-70.638;2023-02-25T13:08:23;33.38;;;16.98;;
34060;SDS011;20336;-33.424;-70.638;2023-02-25T13:27:40;32.58;;;17.65;;
34060;SDS011;20336;-33.424;-70.638;2023-02-25T13:30:13;30.27;;;16.75;;
34060;SDS011;20336;-33.424;-70.638;2023-02-25T13:32:56;41.05;;;20.05;;
34060;SDS011;20336;-33.424;-70.638;2023-02-25T13:45:37;31.45;;;19.02;;
34060;SDS011;20336;-33.424;-70.638;2023-02-25T13:48:12;37.22;;;17.50;;
34060;SDS011;20336;-33.424;-70.638;2023-02-25T14:23:03;48.42;;;17.88;;
34060;SDS011;20336;-33.424;-70.638;2023-02-25T14:28:05;28.42;;;16.27;;
34060;SDS011;20336;-33.424;-70.638;2023-02-25T14:30:49;33.13;;;17.80;;
34060;SDS011;20336;-33.424;-70.638;2023-02-25T14:41:26;36.72;;;18.75;;
34060;SDS011;20336;-33.424;-70.638;2023-02-25T14:44:17;30.35;;;17.58;;
34060;SDS011;20336;-33.424;-70.638;2023-02-25T14:47:06;31.13;;;18.52;;
34060;SDS011;20336;-33.424;-70.638;2023-02-25T14:49:31;31.10;;;17.95;;
34060;SDS011;20336;-33.424;-70.638;2023-02-25T14:57:02;30.90;;;16.77;;
34060;SDS011;20336;-33.424;-70.638;2023-02-25T14:59:41;28.73;;;18.35;;
34060;SDS011;20336;-33.424;-70.638;2023-02-25T15:07:47;26.42;;;15.75;;
34060;SDS011;20336;-33.424;-70.638;2023-02-25T15:10:41;29.67;;;15.40;;
34060;SDS011;20336;-33.424;-70.638;2023-02-25T15:13:09;20.63;;;11.77;;
34060;SDS011;20336;-33.424;-70.638;2023-02-25T15:20:37;23.13;;;11.35;;
34060;SDS011;20336;-33.424;-70.638;2023-02-25T15:23:06;24.33;;;11.50;;
34060;SDS011;20336;-33.424;-70.638;2023-02-25T15:25:44;23.10;;;8.70;;
34060;SDS011;20336;-33.424;-70.638;2023-02-25T15:33:41;23.95;;;9.65;;
34060;SDS011;20336;-33.424;-70.638;2023-02-25T15:38:48;21.38;;;8.98;;
34060;SDS011;20336;-33.424;-70.638;2023-02-25T15:41:36;24.58;;;10.13;;
34060;SDS011;20336;-33.424;-70.638;2023-02-25T15:49:16;19.90;;;10.18;;
34060;SDS011;20336;-33.424;-70.638;2023-02-25T15:51:46;20.98;;;11.20;;
34060;SDS011;20336;-33.424;-70.638;2023-02-25T15:56:56;21.50;;;11.52;;
34060;SDS011;20336;-33.424;-70.638;2023-02-25T16:05:04;21.48;;;10.25;;
34060;SDS011;20336;-33.424;-70.638;2023-02-25T16:10:44;21.55;;;9.35;;
34060;SDS011;20336;-33.424;-70.638;2023-02-25T16:13:15;22.30;;;9.57;;
34060;SDS011;20336;-33.424;-70.638;2023-02-25T16:15:50;25.70;;;10.07;;
34060;SDS011;20336;-33.424;-70.638;2023-02-25T16:21:00;18.48;;;9.40;;
34060;SDS011;20336;-33.424;-70.638;2023-02-25T16:23:32;30.02;;;9.57;;
34060;SDS011;20336;-33.424;-70.638;2023-02-25T16:34:24;16.38;;;8.60;;
34060;SDS011;20336;-33.424;-70.638;2023-02-25T16:40:04;18.60;;;8.05;;
34060;SDS011;20336;-33.424;-70.638;2023-02-25T16:42:41;22.73;;;9.23;;
34060;SDS011;20336;-33.424;-70.638;2023-02-25T16:45:14;24.60;;;8.50;;
34060;SDS011;20336;-33.424;-70.638;2023-02-25T16:48:03;19.70;;;8.57;;
34060;SDS011;20336;-33.424;-70.638;2023-02-25T16:50:32;15.63;;;7.70;;
34060;SDS011;20336;-33.424;-70.638;2023-02-25T16:53:01;24.08;;;9.73;;
34060;SDS011;20336;-33.424;-70.638;2023-02-25T16:55:29;24.00;;;10.23;;
34060;SDS011;20336;-33.424;-70.638;2023-02-25T16:58:04;19.15;;;10.20;;
34060;SDS011;20336;-33.424;-70.638;2023-02-25T17:00:51;21.63;;;8.75;;
34060;SDS011;20336;-33.424;-70.638;2023-02-25T17:03:21;16.83;;;8.93;;
34060;SDS011;20336;-33.424;-70.638;2023-02-25T17:08:33;23.30;;;9.52;;
34060;SDS011;20336;-33.424;-70.638;2023-02-25T17:11:01;21.98;;;10.20;;
34060;SDS011;20336;-33.424;-70.638;2023-02-25T17:13:34;25.98;;;9.68;;
34060;SDS011;20336;-33.424;-70.638;2023-02-25T17:16:05;25.75;;;8.95;;
34060;SDS011;20336;-33.424;-70.638;2023-02-25T17:18:44;17.17;;;7.90;;
34060;SDS011;20336;-33.424;-70.638;2023-02-25T17:21:24;16.80;;;7.97;;
34060;SDS011;20336;-33.424;-70.638;2023-02-25T17:24:00;20.90;;;7.45;;
34060;SDS011;20336;-33.424;-70.638;2023-02-25T17:26:30;24.20;;;8.15;;
34060;SDS011;20336;-33.424;-70.638;2023-02-25T17:28:58;16.98;;;7.15;;
34060;SDS011;20336;-33.424;-70.638;2023-02-25T17:31:27;13.70;;;6.93;;
34060;SDS011;20336;-33.424;-70.638;2023-02-25T17:33:56;15.88;;;7.07;;
34060;SDS011;20336;-33.424;-70.638;2023-02-25T17:36:32;12.18;;;6.80;;
34060;SDS011;20336;-33.424;-70.638;2023-02-25T17:39:05;13.57;;;6.65;;
34060;SDS011;20336;-33.424;-70.638;2023-02-25T17:41:36;12.70;;;6.65;;
34060;SDS011;20336;-33.424;-70.638;2023-02-25T17:47:07;14.85;;;6.15;;
34060;SDS011;20336;-33.424;-70.638;2023-02-25T17:49:37;18.17;;;7.55;;
34060;SDS011;20336;-33.424;-70.638;2023-02-25T17:52:05;18.95;;;7.90;;
34060;SDS011;20336;-33.424;-70.638;2023-02-25T17:54:42;19.73;;;6.45;;
34060;SDS011;20336;-33.424;-70.638;2023-02-25T17:57:15;17.05;;;6.47;;
34060;SDS011;20336;-33.424;-70.638;2023-02-25T18:02:39;14.15;;;5.47;;